createdAt,value
2018-05-24T00:01:30.207Z,13.43
2018-05-24T00:03:55.960Z,13.34
2018-05-24T00:06:21.668Z,13.42
2018-05-24T00:08:47.413Z,13.19
2018-05-24T00:11:13.144Z,13.09
2018-05-24T00:13:38.884Z,12.97
2018-05-24T00:16:04.628Z,12.88
2018-05-24T00:18:30.369Z,12.99
2018-05-24T00:20:56.093Z,13.11
2018-05-24T00:23:21.824Z,12.98
2018-05-24T00:25:47.553Z,12.85
2018-05-24T00:28:13.373Z,12.75
2018-05-24T00:30:39.261Z,12.79
2018-05-24T00:33:04.982Z,12.82
2018-05-24T00:35:30.722Z,12.87
2018-05-24T00:37:56.451Z,12.70
2018-05-24T00:40:22.188Z,12.61
2018-05-24T00:42:47.924Z,12.73
2018-05-24T00:45:13.660Z,12.70
2018-05-24T00:47:39.392Z,12.70
2018-05-24T00:50:05.126Z,12.66
2018-05-24T00:52:30.991Z,12.62
2018-05-24T00:55:09.395Z,12.70
2018-05-24T00:57:35.177Z,12.84
2018-05-24T01:00:00.918Z,12.49
2018-05-24T01:02:26.657Z,12.44
2018-05-24T01:04:52.408Z,12.33
2018-05-24T01:07:18.135Z,12.34
2018-05-24T01:09:43.873Z,12.19
2018-05-24T01:12:09.712Z,12.19
2018-05-24T01:14:35.563Z,12.15
2018-05-24T01:17:01.293Z,12.21
2018-05-24T01:19:29.422Z,12.21
2018-05-24T01:21:55.189Z,12.22
2018-05-24T01:24:20.928Z,12.24
2018-05-24T01:26:46.665Z,12.31
2018-05-24T01:29:12.404Z,12.31
2018-05-24T01:31:38.148Z,12.33
2018-05-24T01:34:03.880Z,12.20
2018-05-24T01:36:41.958Z,12.18
2018-05-24T01:39:07.702Z,11.95
2018-05-24T01:41:33.439Z,11.85
2018-05-24T01:43:59.192Z,11.87
2018-05-24T01:46:24.915Z,11.91
2018-05-24T01:48:50.648Z,11.90
2018-05-24T01:51:16.380Z,11.82
2018-05-24T01:53:42.108Z,11.81
2018-05-24T01:56:07.861Z,11.76
2018-05-24T01:58:33.593Z,11.80
2018-05-24T02:00:59.332Z,11.79
2018-05-24T02:03:25.065Z,11.79
2018-05-24T02:05:50.792Z,11.75
2018-05-24T02:08:16.516Z,11.73
2018-05-24T02:10:42.248Z,11.79
2018-05-24T02:13:07.973Z,11.69
2018-05-24T02:15:33.729Z,11.68
2018-05-24T02:17:59.451Z,11.64
2018-05-24T02:20:25.188Z,11.70
2018-05-24T02:22:50.916Z,11.78
2018-05-24T02:25:17.745Z,11.83
2018-05-24T02:27:44.911Z,11.77
2018-05-24T02:30:11.361Z,11.78
2018-05-24T02:32:37.102Z,11.63
2018-05-24T02:35:02.864Z,11.53
2018-05-24T02:37:28.596Z,11.42
2018-05-24T02:39:54.338Z,11.51
2018-05-24T02:42:20.080Z,11.43
2018-05-24T02:44:45.817Z,11.38
2018-05-24T02:47:11.543Z,11.43
2018-05-24T02:49:37.292Z,11.44
2018-05-24T02:52:03.050Z,11.46
2018-05-24T02:54:28.800Z,11.42
2018-05-24T02:56:54.527Z,11.43
2018-05-24T02:59:20.323Z,11.46
2018-05-24T03:01:46.172Z,11.51
2018-05-24T03:04:11.833Z,11.63
2018-05-24T03:06:37.576Z,11.47
2018-05-24T03:09:04.156Z,11.44
2018-05-24T03:11:29.905Z,11.43
2018-05-24T03:13:55.693Z,11.42
2018-05-24T03:16:21.391Z,11.41
2018-05-24T03:18:47.116Z,11.40
2018-05-24T03:21:12.851Z,11.52
2018-05-24T03:23:38.568Z,11.48
2018-05-24T03:26:04.304Z,11.46
2018-05-24T03:28:30.048Z,11.42
2018-05-24T03:30:55.773Z,11.48
2018-05-24T03:33:21.489Z,11.58
2018-05-24T03:35:47.215Z,11.57
2018-05-24T03:38:12.944Z,11.57
2018-05-24T03:40:38.680Z,11.57
2018-05-24T03:43:04.399Z,11.65
2018-05-24T03:45:30.136Z,11.74
2018-05-24T03:47:55.861Z,11.78
2018-05-24T03:50:21.608Z,11.85
2018-05-24T03:52:47.331Z,11.93
2018-05-24T03:55:13.068Z,11.97
2018-05-24T03:57:38.801Z,12.02
2018-05-24T04:00:16.991Z,12.00
2018-05-24T04:02:55.226Z,12.05
2018-05-24T04:05:20.981Z,12.16
2018-05-24T04:07:46.709Z,12.23
2018-05-24T04:10:12.452Z,12.33
2018-05-24T04:12:38.184Z,12.44
2018-05-24T04:15:03.917Z,12.71
2018-05-24T04:17:29.664Z,12.84
2018-05-24T04:19:55.384Z,12.94
2018-05-24T04:22:21.124Z,13.08
2018-05-24T04:24:46.857Z,13.25
2018-05-24T04:27:12.596Z,13.39
2018-05-24T04:29:38.328Z,13.47
2018-05-24T04:32:04.086Z,13.68
2018-05-24T04:34:29.813Z,13.82
2018-05-24T04:36:55.559Z,13.89
2018-05-24T04:39:21.285Z,13.86
2018-05-24T04:41:47.024Z,14.16
2018-05-24T04:44:12.756Z,14.30
2018-05-24T04:46:38.489Z,14.36
2018-05-24T04:49:04.225Z,14.41
2018-05-24T04:51:29.960Z,14.44
2018-05-24T04:53:55.685Z,14.54
2018-05-24T04:56:21.420Z,14.64
2018-05-24T04:58:47.213Z,14.66
2018-05-24T05:01:12.992Z,14.75
2018-05-24T05:03:38.730Z,14.81
2018-05-24T05:06:04.537Z,14.97
2018-05-24T05:08:30.265Z,15.02
2018-05-24T05:10:56.005Z,15.15
2018-05-24T05:13:21.793Z,15.16
2018-05-24T05:15:47.494Z,15.25
2018-05-24T05:18:13.229Z,15.31
2018-05-24T05:20:38.952Z,15.55
2018-05-24T05:23:04.768Z,15.54
2018-05-24T05:25:30.456Z,15.67
2018-05-24T05:27:56.203Z,15.75
2018-05-24T05:30:21.938Z,15.82
2018-05-24T05:32:47.680Z,15.89
2018-05-24T05:35:13.400Z,15.94
2018-05-24T05:37:39.153Z,16.10
2018-05-24T05:40:04.904Z,16.16
2018-05-24T05:42:30.646Z,16.28
2018-05-24T05:44:56.391Z,16.30
2018-05-24T05:47:22.133Z,16.42
2018-05-24T05:49:47.860Z,16.47
2018-05-24T05:52:13.603Z,16.57
2018-05-24T05:54:39.338Z,16.77
2018-05-24T05:57:05.076Z,16.92
2018-05-24T05:59:30.808Z,16.99
2018-05-24T06:01:56.606Z,17.07
2018-05-24T06:04:22.321Z,17.16
2018-05-24T06:06:48.057Z,17.30
2018-05-24T06:09:13.795Z,17.39
2018-05-24T06:11:39.535Z,17.46
2018-05-24T06:14:05.276Z,17.52
2018-05-24T06:16:31.030Z,17.60
2018-05-24T06:18:56.766Z,17.64
2018-05-24T06:21:22.499Z,17.74
2018-05-24T06:23:48.239Z,17.93
2018-05-24T06:26:13.963Z,18.09
2018-05-24T06:28:39.701Z,17.98
2018-05-24T06:31:05.440Z,18.25
2018-05-24T06:33:31.205Z,18.37
2018-05-24T06:35:56.948Z,18.43
2018-05-24T06:38:22.696Z,18.36
2018-05-24T06:40:48.431Z,18.69
2018-05-24T06:43:14.181Z,18.77
2018-05-24T06:45:39.910Z,18.87
2018-05-24T06:48:05.648Z,18.86
2018-05-24T06:50:31.383Z,18.98
2018-05-24T06:52:57.134Z,19.01
2018-05-24T06:55:22.878Z,19.30
2018-05-24T06:57:48.628Z,19.53
2018-05-24T07:00:14.360Z,19.70
2018-05-24T07:02:40.115Z,19.82
2018-05-24T07:05:05.856Z,19.98
2018-05-24T07:07:31.627Z,19.97
2018-05-24T07:09:57.349Z,20.25
2018-05-24T07:12:23.079Z,20.52
2018-05-24T07:14:48.820Z,20.39
2018-05-24T07:17:14.555Z,20.52
2018-05-24T07:19:40.309Z,20.71
2018-05-24T07:22:06.037Z,21.17
2018-05-24T07:24:31.795Z,21.03
2018-05-24T07:26:57.536Z,20.97
2018-05-24T07:29:23.275Z,21.17
2018-05-24T07:31:49.000Z,21.49
2018-05-24T07:34:14.747Z,21.91
2018-05-24T07:36:40.484Z,21.92
2018-05-24T07:39:06.232Z,22.22
2018-05-24T07:41:31.969Z,22.12
2018-05-24T07:43:57.704Z,22.36
2018-05-24T07:46:23.463Z,22.21
2018-05-24T07:48:49.208Z,21.99
2018-05-24T07:51:14.936Z,22.25
2018-05-24T07:53:40.681Z,22.35
2018-05-24T07:56:06.433Z,22.54
2018-05-24T07:58:32.160Z,22.46
2018-05-24T08:00:57.881Z,22.45
2018-05-24T08:03:23.624Z,22.64
2018-05-24T08:05:49.384Z,22.58
2018-05-24T08:10:45.461Z,22.71
2018-05-24T08:13:11.204Z,22.91
2018-05-24T08:15:36.951Z,22.87
2018-05-24T08:18:02.707Z,22.68
2018-05-24T08:20:28.436Z,22.99
2018-05-24T08:22:54.173Z,23.32
2018-05-24T08:25:19.911Z,23.30
2018-05-24T08:27:45.647Z,23.13
2018-05-24T08:30:11.390Z,23.32
2018-05-24T08:32:37.128Z,23.23
2018-05-24T08:35:02.973Z,23.42
2018-05-24T08:37:28.635Z,23.71
2018-05-24T08:39:54.368Z,23.57
2018-05-24T08:42:20.121Z,23.38
2018-05-24T08:44:45.873Z,23.50
2018-05-24T08:47:11.625Z,24.21
2018-05-24T08:49:37.373Z,24.48
2018-05-24T08:52:03.123Z,24.24
2018-05-24T08:54:28.873Z,24.41
2018-05-24T08:56:54.600Z,24.50
2018-05-24T08:59:20.336Z,24.44
2018-05-24T09:01:46.080Z,24.02
2018-05-24T09:04:11.828Z,23.36
2018-05-24T09:06:37.557Z,23.16
2018-05-24T09:09:04.192Z,23.33
2018-05-24T09:11:29.919Z,23.15
2018-05-24T09:13:55.670Z,24.15
2018-05-24T09:16:21.416Z,23.94
2018-05-24T09:18:47.164Z,24.36
2018-05-24T09:21:12.884Z,24.58
2018-05-24T09:23:38.636Z,23.85
2018-05-24T09:26:04.369Z,23.95
2018-05-24T09:28:30.103Z,24.29
2018-05-24T09:30:55.860Z,24.88
2018-05-24T09:33:21.593Z,24.58
2018-05-24T09:35:47.332Z,24.59
2018-05-24T09:38:13.073Z,24.58
2018-05-24T09:40:38.820Z,24.76
2018-05-24T09:43:04.550Z,24.68
2018-05-24T09:45:30.300Z,24.78
2018-05-24T09:47:56.023Z,24.48
2018-05-24T09:50:21.760Z,24.31
2018-05-24T09:52:47.497Z,24.26
2018-05-24T09:55:13.303Z,24.25
2018-05-24T09:57:38.976Z,24.53
2018-05-24T10:00:04.734Z,24.71
2018-05-24T10:02:30.479Z,24.57
2018-05-24T10:04:56.216Z,25.01
2018-05-24T10:07:21.948Z,24.13
2018-05-24T10:09:47.693Z,24.23
2018-05-24T10:12:13.416Z,24.21
2018-05-24T10:14:39.151Z,24.49
2018-05-24T10:17:04.883Z,24.28
2018-05-24T10:19:30.640Z,25.02
2018-05-24T10:21:56.373Z,25.63
2018-05-24T10:24:22.107Z,25.41
2018-05-24T10:26:47.856Z,25.14
2018-05-24T10:29:13.614Z,24.58
2018-05-24T10:31:39.344Z,24.73
2018-05-24T10:34:05.092Z,25.30
2018-05-24T10:36:30.854Z,25.21
2018-05-24T10:38:56.592Z,25.36
2018-05-24T10:41:22.331Z,25.43
2018-05-24T10:43:48.073Z,24.97
2018-05-24T10:46:13.829Z,24.65
2018-05-24T10:48:39.564Z,25.10
2018-05-24T10:51:05.375Z,24.86
2018-05-24T10:53:31.075Z,25.14
2018-05-24T10:55:56.833Z,24.09
2018-05-24T10:58:22.556Z,24.35
2018-05-24T11:00:48.304Z,24.91
2018-05-24T11:03:14.035Z,23.64
2018-05-24T11:05:39.780Z,24.40
2018-05-24T11:08:05.514Z,25.17
2018-05-24T11:10:31.257Z,25.30
2018-05-24T11:12:56.996Z,25.35
2018-05-24T11:15:22.750Z,25.21
2018-05-24T11:17:48.473Z,24.74
2018-05-24T11:20:14.212Z,24.85
2018-05-24T11:22:39.950Z,25.38
2018-05-24T11:25:05.767Z,24.16
2018-05-24T11:27:31.436Z,24.88
2018-05-24T11:29:57.192Z,25.06
2018-05-24T11:32:22.920Z,25.00
2018-05-24T11:34:48.654Z,24.51
2018-05-24T11:37:14.384Z,24.65
2018-05-24T11:39:40.124Z,24.60
2018-05-24T11:42:05.856Z,25.22
2018-05-24T11:44:31.591Z,24.79
2018-05-24T11:46:57.336Z,25.35
2018-05-24T11:49:23.060Z,25.05
2018-05-24T11:51:48.846Z,25.34
2018-05-24T11:54:14.528Z,25.39
2018-05-24T11:56:40.263Z,24.82
2018-05-24T11:59:05.989Z,24.97
2018-05-24T12:01:31.720Z,24.86
2018-05-24T12:03:57.451Z,25.23
2018-05-24T12:06:23.191Z,25.72
2018-05-24T12:08:48.932Z,25.42
2018-05-24T12:11:14.665Z,26.24
2018-05-24T12:13:40.379Z,26.28
2018-05-24T12:16:06.132Z,25.77
2018-05-24T12:18:31.863Z,24.89
2018-05-24T12:20:57.601Z,25.56
2018-05-24T12:23:23.332Z,25.79
2018-05-24T12:25:49.064Z,25.51
2018-05-24T12:28:14.784Z,25.22
2018-05-24T12:30:40.504Z,24.98
2018-05-24T12:33:06.232Z,24.70
2018-05-24T12:35:32.051Z,24.46
2018-05-24T12:37:57.708Z,25.30
2018-05-24T12:40:23.446Z,24.24
2018-05-24T12:42:49.196Z,25.23
2018-05-24T12:45:14.920Z,24.40
2018-05-24T12:47:40.643Z,24.48
2018-05-24T12:50:06.379Z,24.19
2018-05-24T12:52:32.112Z,24.43
2018-05-24T12:54:57.844Z,25.12
2018-05-24T12:57:24.298Z,24.65
2018-05-24T12:59:50.048Z,24.38
2018-05-24T13:02:15.784Z,24.17
2018-05-24T13:04:41.519Z,24.08
2018-05-24T13:07:07.801Z,24.97
2018-05-24T13:09:33.529Z,24.24
2018-05-24T13:11:59.737Z,24.25
2018-05-24T13:14:25.511Z,24.53
2018-05-24T13:16:51.764Z,24.44
2018-05-24T13:19:17.500Z,25.06
2018-05-24T13:21:43.432Z,24.18
2018-05-24T13:24:09.506Z,24.50
2018-05-24T13:26:35.255Z,24.08
2018-05-24T13:29:00.979Z,24.41
2018-05-24T13:31:26.730Z,24.52
2018-05-24T13:33:52.754Z,24.49
2018-05-24T13:36:18.507Z,24.70
2018-05-24T13:38:44.252Z,24.71
2018-05-24T13:41:10.001Z,24.73
2018-05-24T13:43:35.728Z,24.28
2018-05-24T13:46:01.481Z,24.74
2018-05-24T13:48:27.322Z,24.63
2018-05-24T13:50:53.068Z,24.65
2018-05-24T13:53:19.252Z,24.83
2018-05-24T13:55:44.975Z,24.52
2018-05-24T13:58:11.036Z,24.71
2018-05-24T14:00:36.790Z,24.47
2018-05-24T14:03:02.531Z,24.77
2018-05-24T14:05:28.272Z,25.02
2018-05-24T14:07:54.272Z,25.11
2018-05-24T14:10:20.000Z,24.56
2018-05-24T14:12:45.740Z,24.86
2018-05-24T14:15:11.476Z,24.99
2018-05-24T14:17:37.219Z,24.55
2018-05-24T14:20:02.968Z,24.59
2018-05-24T14:22:28.736Z,24.04
2018-05-24T14:24:57.808Z,24.49
2018-05-24T14:27:23.615Z,23.95
2018-05-24T14:29:51.228Z,24.19
2018-05-24T14:32:17.423Z,24.51
2018-05-24T14:34:43.239Z,24.42
2018-05-24T14:37:08.988Z,24.15
2018-05-24T14:39:34.802Z,23.96
2018-05-24T14:42:00.826Z,23.91
2018-05-24T14:44:27.868Z,24.30
2018-05-24T14:46:55.049Z,23.78
2018-05-24T14:49:20.812Z,23.62
2018-05-24T14:51:46.680Z,23.50
2018-05-24T14:54:12.699Z,23.60
2018-05-24T14:56:38.656Z,23.77
2018-05-24T14:59:04.605Z,23.42
2018-05-24T15:01:32.268Z,23.79
2018-05-24T15:03:58.314Z,24.01
2018-05-24T15:06:24.708Z,23.68
2018-05-24T15:08:50.936Z,23.98
2018-05-24T15:11:17.161Z,23.90
2018-05-24T15:13:48.897Z,23.55
2018-05-24T15:16:21.836Z,23.74
2018-05-24T15:18:47.835Z,23.66
2018-05-24T15:21:13.678Z,23.77
2018-05-24T15:23:39.548Z,23.63
2018-05-24T15:26:05.288Z,23.54
2018-05-24T15:28:31.332Z,23.55
2018-05-24T15:30:57.332Z,23.64
2018-05-24T15:33:23.272Z,23.66
2018-05-24T15:35:49.248Z,23.50
2018-05-24T15:38:15.035Z,23.56
2018-05-24T15:40:40.962Z,23.38
2018-05-24T15:43:06.805Z,23.48
2018-05-24T15:45:32.995Z,23.25
2018-05-24T15:47:59.059Z,23.44
2018-05-24T15:50:24.873Z,23.14
2018-05-24T15:52:50.859Z,23.37
2018-05-24T15:55:16.820Z,23.45
2018-05-24T15:57:42.767Z,23.55
2018-05-24T16:00:08.585Z,23.56
2018-05-24T16:02:34.547Z,23.53
2018-05-24T16:05:00.335Z,23.30
2018-05-24T16:07:26.357Z,23.55
2018-05-24T16:09:52.341Z,23.23
2018-05-24T16:12:18.304Z,23.00
2018-05-24T16:14:44.321Z,23.10
2018-05-24T16:17:10.159Z,22.96
2018-05-24T16:19:35.931Z,23.07
2018-05-24T16:22:01.946Z,23.00
2018-05-24T16:24:28.047Z,23.09
2018-05-24T16:26:54.161Z,23.28
2018-05-24T16:29:20.176Z,22.84
2018-05-24T16:31:46.130Z,22.85
2018-05-24T16:34:12.139Z,22.89
2018-05-24T16:36:38.115Z,23.05
2018-05-24T16:39:05.952Z,22.98
2018-05-24T16:41:31.859Z,22.76
2018-05-24T16:43:58.026Z,22.72
2018-05-24T16:46:24.808Z,22.72
2018-05-24T16:48:50.568Z,22.60
2018-05-24T16:51:20.107Z,22.31
2018-05-24T16:53:47.500Z,22.32
2018-05-24T16:56:14.350Z,22.17
2018-05-24T16:58:40.104Z,22.15
2018-05-24T17:01:05.848Z,22.11
2018-05-24T17:03:31.821Z,22.01
2018-05-24T17:05:57.581Z,22.00
2018-05-24T17:08:23.567Z,22.05
2018-05-24T17:10:49.476Z,22.00
2018-05-24T17:13:15.446Z,22.00
2018-05-24T17:15:41.509Z,21.88
2018-05-24T17:18:07.548Z,21.96
2018-05-24T17:20:33.586Z,21.85
2018-05-24T17:22:59.381Z,22.01
2018-05-24T17:25:25.475Z,21.74
2018-05-24T17:27:51.629Z,21.63
2018-05-24T17:30:17.666Z,21.80
2018-05-24T17:32:43.620Z,21.52
2018-05-24T17:35:12.132Z,21.59
2018-05-24T17:37:38.209Z,21.49
2018-05-24T17:40:05.482Z,21.36
2018-05-24T17:42:32.611Z,21.30
2018-05-24T17:44:58.611Z,21.21
2018-05-24T17:47:24.507Z,21.16
2018-05-24T17:49:50.256Z,21.07
2018-05-24T17:52:17.134Z,21.00
2018-05-24T17:54:45.104Z,20.85
2018-05-24T17:57:10.868Z,20.74
2018-05-24T17:59:36.991Z,20.68
2018-05-24T18:02:02.729Z,20.64
2018-05-24T18:04:28.479Z,20.46
2018-05-24T18:06:54.213Z,20.32
2018-05-24T18:09:19.986Z,20.25
2018-05-24T18:11:45.713Z,20.19
2018-05-24T18:14:11.607Z,20.13
2018-05-24T18:16:37.371Z,20.07
2018-05-24T18:19:03.108Z,20.03
2018-05-24T18:21:28.889Z,19.96
2018-05-24T18:23:54.628Z,19.88
2018-05-24T18:26:20.584Z,19.78
2018-05-24T18:28:46.565Z,19.75
2018-05-24T18:31:12.308Z,19.66
2018-05-24T18:33:38.040Z,19.57
2018-05-24T18:36:03.941Z,19.54
2018-05-24T18:38:29.609Z,19.45
2018-05-24T18:40:55.349Z,19.39
2018-05-24T18:43:21.180Z,19.24
2018-05-24T18:45:46.988Z,19.23
2018-05-24T18:48:12.738Z,19.10
2018-05-24T18:50:38.493Z,19.02
2018-05-24T18:53:04.394Z,18.99
2018-05-24T18:55:30.137Z,18.98
2018-05-24T18:57:55.887Z,18.95
2018-05-24T19:00:21.743Z,18.84
2018-05-24T19:02:47.673Z,18.72
2018-05-24T19:05:13.447Z,18.67
2018-05-24T19:07:39.176Z,18.67
2018-05-24T19:10:05.084Z,18.54
2018-05-24T19:12:30.816Z,18.50
2018-05-24T19:14:56.557Z,18.42
2018-05-24T19:17:22.293Z,18.38
2018-05-24T19:19:48.035Z,18.41
2018-05-24T19:22:13.880Z,18.25
2018-05-24T19:24:39.632Z,18.19
2018-05-24T19:27:05.375Z,18.12
2018-05-24T19:29:31.176Z,18.05
2018-05-24T19:31:56.855Z,18.06
2018-05-24T19:34:22.834Z,17.93
2018-05-24T19:36:48.648Z,17.91
2018-05-24T19:39:14.405Z,17.83
2018-05-24T19:41:40.228Z,17.77
2018-05-24T19:44:05.970Z,17.67
2018-05-24T19:46:31.785Z,17.55
2018-05-24T19:48:57.677Z,17.45
2018-05-24T19:51:23.417Z,17.52
2018-05-24T19:53:49.452Z,17.41
2018-05-24T19:56:15.209Z,17.37
2018-05-24T19:58:40.961Z,17.23
2018-05-24T20:01:06.709Z,17.18
2018-05-24T20:03:32.642Z,17.17
2018-05-24T20:05:58.413Z,17.09
2018-05-24T20:08:24.133Z,17.09
2018-05-24T20:10:49.869Z,17.06
2018-05-24T20:13:15.681Z,16.97
2018-05-24T20:15:41.421Z,17.00
2018-05-24T20:18:07.141Z,16.88
2018-05-24T20:20:33.028Z,16.78
2018-05-24T20:22:58.926Z,16.83
2018-05-24T20:25:25.832Z,16.81
2018-05-24T20:27:52.556Z,16.73
2018-05-24T20:30:18.603Z,16.60
2018-05-24T20:32:45.126Z,16.60
2018-05-24T20:35:11.140Z,16.56
2018-05-24T20:37:37.103Z,16.62
2018-05-24T20:40:03.062Z,16.56
2018-05-24T20:42:29.058Z,16.46
2018-05-24T20:44:54.837Z,16.54
2018-05-24T20:47:20.809Z,16.56
2018-05-24T20:49:49.722Z,16.52
2018-05-24T20:52:16.111Z,16.50
2018-05-24T20:54:42.141Z,16.37
2018-05-24T20:57:07.939Z,16.32
2018-05-24T20:59:34.002Z,16.22
2018-05-24T21:02:00.028Z,16.15
2018-05-24T21:04:26.040Z,16.17
2018-05-24T21:06:52.046Z,16.07
2018-05-24T21:09:17.792Z,16.02
2018-05-24T21:11:43.766Z,16.02
2018-05-24T21:14:09.741Z,15.98
2018-05-24T21:16:35.808Z,15.89
2018-05-24T21:19:01.881Z,15.87
2018-05-24T21:21:27.687Z,15.80
2018-05-24T21:23:53.692Z,15.73
2018-05-24T21:26:19.760Z,15.75
2018-05-24T21:28:45.724Z,15.62
2018-05-24T21:31:11.766Z,15.59
2018-05-24T21:33:38.231Z,15.64
2018-05-24T21:36:04.280Z,15.61
2018-05-24T21:38:30.258Z,15.59
2018-05-24T21:40:56.222Z,15.55
2018-05-24T21:43:22.514Z,15.58
2018-05-24T21:45:48.628Z,15.56
2018-05-24T21:48:14.429Z,15.66
2018-05-24T21:50:40.297Z,15.63
2018-05-24T21:53:06.090Z,15.59
2018-05-24T21:55:32.094Z,15.58
2018-05-24T21:57:58.117Z,15.52
2018-05-24T22:00:23.917Z,15.56
2018-05-24T22:02:49.827Z,15.56
2018-05-24T22:05:15.933Z,15.59
2018-05-24T22:07:41.917Z,15.52
2018-05-24T22:10:07.991Z,15.51
2018-05-24T22:12:33.868Z,15.64
2018-05-24T22:14:59.797Z,15.57
2018-05-24T22:17:25.811Z,15.52
2018-05-24T22:19:51.748Z,15.54
2018-05-24T22:22:17.840Z,15.63
2018-05-24T22:24:43.621Z,15.63
2018-05-24T22:27:09.367Z,15.57
2018-05-24T22:29:35.324Z,15.54
2018-05-24T22:32:01.489Z,15.55
2018-05-24T22:34:27.596Z,15.56
2018-05-24T22:36:53.404Z,15.49
2018-05-24T22:39:19.157Z,15.67
2018-05-24T22:41:47.130Z,15.59
2018-05-24T22:44:15.037Z,15.56
2018-05-24T22:46:41.134Z,15.46
2018-05-24T22:49:08.740Z,15.54
2018-05-24T22:51:35.194Z,15.56
2018-05-24T22:54:01.129Z,15.67
2018-05-24T22:56:27.233Z,15.65
2018-05-24T22:58:53.197Z,15.65
2018-05-24T23:01:19.413Z,15.62
2018-05-24T23:03:45.396Z,15.51
2018-05-24T23:06:12.320Z,15.60
2018-05-24T23:08:39.245Z,15.57
2018-05-24T23:11:05.325Z,15.50
2018-05-24T23:13:31.551Z,15.51
2018-05-24T23:15:57.687Z,15.41
2018-05-24T23:18:23.750Z,15.38
2018-05-24T23:20:49.801Z,15.38
2018-05-24T23:23:15.851Z,15.40
2018-05-24T23:25:41.938Z,15.36
2018-05-24T23:28:07.960Z,15.38
2018-05-24T23:30:33.748Z,15.30
2018-05-24T23:33:00.623Z,15.25
2018-05-24T23:35:26.618Z,15.29
2018-05-24T23:37:52.846Z,15.24
2018-05-24T23:40:18.633Z,15.13
2018-05-24T23:42:44.405Z,15.16
2018-05-24T23:45:10.968Z,15.18
2018-05-24T23:47:37.066Z,15.14
2018-05-24T23:50:03.098Z,15.06
2018-05-24T23:52:29.153Z,15.04
2018-05-24T23:54:56.307Z,15.04
2018-05-24T23:57:22.309Z,15.05
2018-05-24T23:59:48.096Z,15.07
